Time;durP1;ratioP1;P1;durP2;ratioP2;P2;SDS_P1;SDS_P2;PMS_P1;PMS_P2;Temp;Humidity;BMP_temperature;BMP_pressure;BME280_temperature;BME280_humidity;BME280_pressure;Samples;Min_cycle;Max_cycle;Signal;HPM_P1;HPM_P2
2021/12/11 00:00:30;;;;;;;7.85;7.05;;;;;;;5.62;65.07;94030.66;5093607;28;20207;-69
2021/12/11 00:03:00;;;;;;;7.72;6.93;;;;;;;5.54;64.80;94033.19;5077657;28;20276;-69
2021/12/11 00:05:28;;;;;;;7.28;6.57;;;;;;;5.48;65.74;94042.81;5077579;28;20207;-69
2021/12/11 00:07:55;;;;;;;8.30;7.25;;;;;;;5.46;65.77;94038.81;5076502;28;20181;-69
2021/12/11 00:10:28;;;;;;;7.53;6.75;;;;;;;5.42;66.16;94046.13;5076494;28;20189;-69
2021/12/11 00:12:57;;;;;;;7.13;6.53;;;;;;;5.38;65.96;94062.41;5076589;28;20197;-69
2021/12/11 00:15:29;;;;;;;7.75;6.95;;;;;;;5.33;66.02;94059.91;5076872;28;20193;-69
2021/12/11 00:18:01;;;;;;;9.00;7.43;;;;;;;5.28;66.56;94082.81;5093485;28;20196;-69
2021/12/11 00:20:31;;;;;;;8.07;7.28;;;;;;;5.17;66.60;94069.97;5076466;28;20208;-69
2021/12/11 00:22:58;;;;;;;7.32;6.72;;;;;;;5.07;66.74;94077.47;5077284;28;20201;-69
2021/12/11 00:25:27;;;;;;;8.23;7.45;;;;;;;5.09;66.77;94071.69;5093247;28;20314;-69
2021/12/11 00:28:01;;;;;;;8.82;7.38;;;;;;;5.14;66.65;94076.09;5076307;28;20196;-69
2021/12/11 00:30:32;;;;;;;9.40;7.65;;;;;;;5.20;66.84;94078.28;5093146;28;20202;-69
2021/12/11 00:33:01;;;;;;;8.63;7.80;;;;;;;5.19;66.83;94073.94;5076314;28;20197;-69
2021/12/11 00:35:28;;;;;;;9.60;8.20;;;;;;;5.23;66.57;94074.06;5077102;28;20201;-69
2021/12/11 00:38:02;;;;;;;10.02;9.02;;;;;;;5.15;67.42;94066.75;5077359;28;20192;-69
2021/12/11 00:40:31;;;;;;;9.23;8.32;;;;;;;5.05;66.74;94065.31;5076860;28;20178;-69
2021/12/11 00:43:03;;;;;;;9.90;8.15;;;;;;;5.03;67.01;94062.91;5075894;28;20286;-69
2021/12/11 00:45:33;;;;;;;7.80;7.10;;;;;;;5.12;66.92;94057.34;5075732;28;20211;-69
2021/12/11 00:48:01;;;;;;;8.70;7.68;;;;;;;5.14;67.16;94063.22;5092921;28;20201;-69
2021/12/11 00:50:31;;;;;;;8.70;7.80;;;;;;;5.11;67.49;94058.44;5076498;28;20187;-70
2021/12/11 00:53:00;;;;;;;10.52;8.93;;;;;;;5.04;67.69;94045.34;5092604;28;20233;-70
2021/12/11 00:55:31;;;;;;;8.65;6.68;;;;;;;5.09;66.43;94046.28;5092327;28;20629;-70
2021/12/11 00:58:06;;;;;;;8.25;7.22;;;;;;;5.13;66.79;94047.97;5092722;28;20215;-70
2021/12/11 01:00:39;;;;;;;8.90;7.15;;;;;;;5.11;66.94;94049.47;5076610;28;20214;-70
2021/12/11 01:03:06;;;;;;;7.65;6.85;;;;;;;5.08;67.30;94064.59;5092649;28;20220;-69
2021/12/11 01:05:39;;;;;;;9.38;7.47;;;;;;;5.06;67.48;94055.97;5075772;28;20193;-69
2021/12/11 01:08:20;;;;;;;6.80;6.15;;;;;;;5.11;67.38;94049.47;5076353;28;20185;-69
2021/12/11 01:10:50;;;;;;;6.72;6.03;;;;;;;5.14;67.49;94054.25;5075513;28;20193;-69
2021/12/11 01:13:23;;;;;;;6.78;5.43;;;;;;;5.13;66.98;94056.19;5092487;28;20284;-69
2021/12/11 01:15:56;;;;;;;6.57;5.53;;;;;;;5.13;67.41;94049.91;5075689;28;20201;-69
2021/12/11 01:18:34;;;;;;;6.57;5.00;;;;;;;5.17;67.32;94048.88;5092088;28;20280;-69
2021/12/11 01:21:09;;;;;;;5.47;4.97;;;;;;;5.20;66.83;94048.19;5075526;28;20203;-69
2021/12/11 01:23:56;;;;;;;5.22;4.72;;;;;;;5.20;66.40;94052.88;5092164;28;20310;-69
2021/12/11 01:26:24;;;;;;;5.10;4.60;;;;;;;5.19;66.78;94051.25;5091806;28;20193;-69
2021/12/11 01:28:52;;;;;;;5.68;4.47;;;;;;;5.18;66.43;94052.41;5074932;28;20201;-69
2021/12/11 01:31:21;;;;;;;6.35;4.30;;;;;;;5.18;66.88;94046.94;5076302;28;20189;-69
2021/12/11 01:33:48;;;;;;;5.25;4.10;;;;;;;5.18;66.46;94049.69;5076082;28;20204;-69
2021/12/11 01:36:15;;;;;;;4.72;4.22;;;;;;;5.16;66.54;94043.78;5075655;28;20177;-69
2021/12/11 01:38:42;;;;;;;5.60;4.55;;;;;;;5.14;66.47;94054.25;5075015;28;20196;-68
2021/12/11 01:41:12;;;;;;;4.95;4.55;;;;;;;5.06;66.82;94045.03;5092207;28;20189;-69
2021/12/11 01:43:42;;;;;;;5.95;4.70;;;;;;;5.03;67.02;94038.31;5075581;28;20220;-69
2021/12/11 01:46:10;;;;;;;4.97;4.50;;;;;;;5.00;66.83;94030.78;5075679;28;20199;-69
2021/12/11 01:48:41;;;;;;;4.50;4.10;;;;;;;4.99;66.62;94025.66;5075454;28;20181;-69
2021/12/11 01:51:11;;;;;;;4.78;4.07;;;;;;;4.99;66.78;94037.41;5091272;28;20200;-69
2021/12/11 01:53:42;;;;;;;4.32;3.92;;;;;;;4.95;66.41;94041.94;5074119;28;20231;-69
2021/12/11 01:56:11;;;;;;;3.72;3.42;;;;;;;4.90;66.52;94030.44;5074694;28;20189;-69
2021/12/11 01:58:45;;;;;;;5.63;4.18;;;;;;;4.87;67.13;94029.22;5075501;28;20186;-69
2021/12/11 02:01:19;;;;;;;4.60;4.15;;;;;;;4.83;67.73;94028.31;5091127;28;20706;-69
2021/12/11 02:03:46;;;;;;;3.83;3.53;;;;;;;4.79;67.67;94028.19;5074786;28;20227;-69
2021/12/11 02:06:13;;;;;;;4.50;4.15;;;;;;;4.74;67.24;94025.66;5091407;28;20215;-69
2021/12/11 02:08:42;;;;;;;4.20;3.80;;;;;;;4.72;67.56;94021.69;5075328;28;20189;-69
2021/12/11 02:11:10;;;;;;;4.07;3.65;;;;;;;4.65;67.74;94005.06;5074972;28;20201;-69
2021/12/11 02:13:42;;;;;;;4.22;3.83;;;;;;;4.64;67.68;94011.66;5075430;28;20255;-68
2021/12/11 02:16:18;;;;;;;3.85;3.55;;;;;;;4.60;68.38;94025.22;5075050;28;20181;-69
2021/12/11 02:18:47;;;;;;;3.78;3.47;;;;;;;4.56;68.62;94019.63;5090929;28;20197;-69
2021/12/11 02:21:16;;;;;;;3.53;3.22;;;;;;;4.56;68.15;94018.84;5075480;28;20187;-69
2021/12/11 02:23:51;;;;;;;3.75;3.45;;;;;;;4.55;67.86;94025.44;5074340;28;20223;-69
2021/12/11 02:26:19;;;;;;;3.95;3.58;;;;;;;4.57;67.59;94017.69;5074859;28;20556;-69
2021/12/11 02:28:49;;;;;;;3.45;3.15;;;;;;;4.58;67.69;94017.38;5074771;28;20207;-69
2021/12/11 02:31:20;;;;;;;4.30;3.90;;;;;;;4.57;67.72;94025.88;5074718;28;20185;-69
2021/12/11 02:33:53;;;;;;;4.32;3.92;;;;;;;4.58;68.00;94019.31;5075043;28;20181;-69
2021/12/11 02:36:23;;;;;;;4.78;4.38;;;;;;;4.58;67.80;94019.31;5075166;28;20200;-69
2021/12/11 02:38:59;;;;;;;4.47;4.07;;;;;;;4.57;68.13;94015.78;5091067;28;20227;-69
2021/12/11 02:41:31;;;;;;;4.47;4.07;;;;;;;4.55;68.86;94019.97;5075413;28;20262;-69
2021/12/11 02:44:03;;;;;;;4.70;4.30;;;;;;;4.49;68.86;94016.66;5090569;28;20644;-69
2021/12/11 02:46:34;;;;;;;5.43;4.93;;;;;;;4.42;68.75;93997.31;5074345;28;20203;-69
2021/12/11 02:49:05;;;;;;;5.30;4.80;;;;;;;4.42;68.97;94002.78;5091349;28;20204;-69
2021/12/11 02:51:37;;;;;;;5.63;5.13;;;;;;;4.45;68.80;94004.03;5090507;28;20201;-69
2021/12/11 02:54:07;;;;;;;5.80;5.30;;;;;;;4.43;68.23;93998.09;5090378;28;20657;-69
2021/12/11 02:56:37;;;;;;;4.97;4.57;;;;;;;4.42;67.73;93991.84;5074688;28;20185;-69
2021/12/11 02:59:09;;;;;;;5.15;4.65;;;;;;;4.38;68.40;94001.06;5074700;28;20503;-69
2021/12/11 03:01:38;;;;;;;5.32;4.93;;;;;;;4.31;68.88;93987.97;5074067;28;20247;-68
2021/12/11 03:04:16;;;;;;;5.68;5.18;;;;;;;4.28;69.36;93989.44;5074731;28;20216;-68
2021/12/11 03:06:46;;;;;;;5.75;5.25;;;;;;;4.27;69.63;93981.59;5090720;28;20197;-69
2021/12/11 03:09:17;;;;;;;5.70;5.20;;;;;;;4.25;70.07;93986.63;5074933;28;20186;-69
2021/12/11 03:11:44;;;;;;;6.93;6.32;;;;;;;4.22;70.54;93988.09;5073659;28;20205;-69
2021/12/11 03:14:14;;;;;;;7.28;6.60;;;;;;;4.20;70.66;93981.38;5073711;28;20193;-69
2021/12/11 03:16:42;;;;;;;12.05;9.80;;;;;;;4.21;70.41;93983.78;5090614;28;20200;-69
2021/12/11 03:19:15;;;;;;;12.15;10.95;;;;;;;4.23;70.23;93976.03;5090908;28;20205;-69
2021/12/11 03:21:42;;;;;;;13.45;12.02;;;;;;;4.23;70.32;93977.97;5090582;28;20212;-69
2021/12/11 03:24:09;;;;;;;13.02;11.70;;;;;;;4.18;70.61;93976.25;5073888;28;20221;-69
2021/12/11 03:26:39;;;;;;;13.57;12.18;;;;;;;4.22;70.51;93979.09;5073767;28;20208;-69
2021/12/11 03:29:06;;;;;;;12.00;10.90;;;;;;;4.27;70.27;93982.41;5074567;28;20196;-69
2021/12/11 03:31:36;;;;;;;10.02;9.10;;;;;;;4.26;70.01;93974.56;5074485;28;20185;-69
2021/12/11 03:34:05;;;;;;;9.70;8.75;;;;;;;4.27;70.38;93957.84;5074292;28;20228;-69
2021/12/11 03:36:33;;;;;;;8.70;7.90;;;;;;;4.28;70.49;93962.16;5074366;28;20594;-69
2021/12/11 03:39:06;;;;;;;8.43;7.63;;;;;;;4.29;70.17;93949.31;5073430;28;20198;-69
2021/12/11 03:41:33;;;;;;;7.57;6.88;;;;;;;4.32;70.47;93951.34;5073686;28;20208;-69
2021/12/11 03:44:01;;;;;;;6.68;6.07;;;;;;;4.33;70.61;93955.69;5077382;28;20205;-69
2021/12/11 03:46:28;;;;;;;6.40;5.80;;;;;;;4.35;70.30;93951.47;5077044;28;20204;-68
2021/12/11 03:48:58;;;;;;;6.32;5.72;;;;;;;4.36;70.24;93957.75;5077259;28;20189;-68
2021/12/11 03:51:28;;;;;;;5.82;5.32;;;;;;;4.34;70.33;93958.06;5094581;28;20197;-69
2021/12/11 03:53:56;;;;;;;5.97;5.47;;;;;;;4.39;70.55;93957.03;5077996;28;20298;-69
2021/12/11 03:56:23;;;;;;;5.95;5.40;;;;;;;4.43;70.63;93968.91;5093741;28;20276;-69
2021/12/11 03:58:51;;;;;;;6.00;5.50;;;;;;;4.43;70.34;93965.34;5093740;28;20534;-69
2021/12/11 04:01:26;;;;;;;6.50;5.88;;;;;;;4.42;70.37;93966.50;5077368;28;20220;-69
2021/12/11 04:03:55;;;;;;;5.90;5.40;;;;;;;4.40;70.60;93982.44;5093633;28;20213;-69
2021/12/11 04:06:22;;;;;;;6.07;5.57;;;;;;;4.39;70.63;93984.34;5093673;28;20208;-69
2021/12/11 04:08:50;;;;;;;5.78;5.20;;;;;;;4.39;70.85;93992.53;5076599;28;20197;-69
2021/12/11 04:11:19;;;;;;;5.55;5.05;;;;;;;4.38;70.74;93990.94;5077564;28;20192;-69
2021/12/11 04:13:47;;;;;;;6.95;6.35;;;;;;;4.40;71.24;93988.69;5077575;28;20181;-68
2021/12/11 04:16:15;;;;;;;5.70;5.20;;;;;;;4.42;71.10;93986.38;5077284;28;20189;-68
2021/12/11 04:18:44;;;;;;;5.15;4.75;;;;;;;4.44;70.99;93980.59;5077381;28;20181;-68
2021/12/11 04:21:11;;;;;;;6.15;5.65;;;;;;;4.48;70.72;93973.31;5077300;28;20186;-68
2021/12/11 04:23:38;;;;;;;6.22;5.70;;;;;;;4.50;71.00;93963.66;5093417;28;20221;-68
2021/12/11 04:26:05;;;;;;;6.10;5.60;;;;;;;4.54;71.26;93969.25;5093519;28;20204;-69
2021/12/11 04:28:35;;;;;;;6.32;5.82;;;;;;;4.56;71.09;93969.69;5093149;28;20200;-69
2021/12/11 04:31:06;;;;;;;7.03;6.43;;;;;;;4.53;71.05;93971.16;5093256;28;20215;-69
2021/12/11 04:33:37;;;;;;;7.70;7.10;;;;;;;4.47;71.17;93964.34;5093073;28;20197;-69
2021/12/11 04:36:08;;;;;;;7.43;6.75;;;;;;;4.44;71.39;93954.09;5076894;28;20225;-69
2021/12/11 04:38:35;;;;;;;7.47;6.88;;;;;;;4.46;71.79;93951.81;5076303;28;20651;-69
2021/12/11 04:41:03;;;;;;;7.38;6.78;;;;;;;4.46;71.66;93940.88;5076773;28;20590;-69
2021/12/11 04:43:30;;;;;;;7.93;7.22;;;;;;;4.46;71.67;93946.34;5077149;28;20221;-69
2021/12/11 04:46:01;;;;;;;7.82;7.18;;;;;;;4.46;72.50;93949.06;5076215;28;20217;-69
2021/12/11 04:48:36;;;;;;;8.05;7.25;;;;;;;4.47;72.77;93942.50;5075628;28;20225;-69
2021/12/11 04:51:13;;;;;;;8.25;7.55;;;;;;;4.48;73.68;93948.75;5092527;28;20204;-68
2021/12/11 04:53:53;;;;;;;7.40;6.70;;;;;;;4.45;73.81;93943.97;5075412;28;20231;-69
2021/12/11 04:56:50;;;;;;;8.40;7.15;;;;;;;4.45;73.91;93943.97;5075614;28;20200;-69
2021/12/11 04:59:38;;;;;;;6.45;5.85;;;;;;;4.43;74.05;93955.25;5075660;28;20278;-70
2021/12/11 05:02:19;;;;;;;4.78;4.38;;;;;;;4.50;73.59;93946.47;5091980;28;20436;-69
2021/12/11 05:05:00;;;;;;;6.25;5.05;;;;;;;4.53;74.21;93949.31;5076521;28;20298;-69
2021/12/11 05:07:35;;;;;;;6.25;5.65;;;;;;;4.57;73.63;93949.41;5092951;28;20204;-69
2021/12/11 05:10:12;;;;;;;6.00;5.40;;;;;;;4.63;74.31;93963.66;5075647;28;20196;-69
2021/12/11 05:12:40;;;;;;;5.07;4.63;;;;;;;4.62;74.11;93960.13;5075359;28;20200;-69
2021/12/11 05:15:10;;;;;;;3.83;3.53;;;;;;;4.62;74.11;93943.75;5076300;28;20177;-69
2021/12/11 05:17:37;;;;;;;3.30;3.10;;;;;;;4.66;74.52;93943.84;5076364;28;20432;-69
2021/12/11 05:20:06;;;;;;;3.22;2.92;;;;;;;4.68;74.18;93947.81;5074366;28;20426;-69
2021/12/11 05:22:36;;;;;;;2.90;2.70;;;;;;;4.70;73.92;93947.50;5074225;28;20420;-69
2021/12/11 05:25:07;;;;;;;2.92;2.63;;;;;;;4.72;73.87;93943.28;5092026;28;20209;-69
2021/12/11 05:27:34;;;;;;;3.05;2.85;;;;;;;4.71;74.77;93949.06;5074874;28;20222;-69
2021/12/11 05:30:01;;;;;;;3.33;3.10;;;;;;;4.69;74.64;93954.09;5076194;28;20199;-69
2021/12/11 05:32:28;;;;;;;2.92;2.72;;;;;;;4.69;75.33;93938.50;5075922;28;20185;-69
2021/12/11 05:34:57;;;;;;;3.70;3.40;;;;;;;4.69;76.23;93948.63;5075868;28;20547;-69
2021/12/11 05:37:26;;;;;;;3.30;3.10;;;;;;;4.68;76.06;93942.34;5075083;28;20197;-69
2021/12/11 05:39:55;;;;;;;3.70;3.40;;;;;;;4.69;76.78;93954.88;5075657;28;20181;-69
2021/12/11 05:42:22;;;;;;;3.75;3.45;;;;;;;4.69;76.46;93954.09;5075813;28;20208;-69
2021/12/11 05:44:49;;;;;;;3.67;3.42;;;;;;;4.71;76.36;93949.88;5074624;28;20229;-70
2021/12/11 05:47:17;;;;;;;4.95;4.35;;;;;;;4.74;76.03;93946.44;5075548;28;20220;-70
2021/12/11 05:49:45;;;;;;;4.40;4.10;;;;;;;4.77;75.33;93958.63;5075902;28;20197;-69
2021/12/11 05:52:13;;;;;;;5.00;4.60;;;;;;;4.79;75.50;93953.59;5076295;28;20268;-70
2021/12/11 05:54:41;;;;;;;6.03;5.53;;;;;;;4.79;76.02;93968.09;5076113;28;20236;-70
2021/12/11 05:57:12;;;;;;;6.28;5.68;;;;;;;4.80;75.73;93958.75;5076267;28;20199;-70
2021/12/11 05:59:40;;;;;;;6.95;6.35;;;;;;;4.80;75.63;93960.69;5075340;28;20609;-70
2021/12/11 06:02:10;;;;;;;7.50;6.80;;;;;;;4.82;75.19;93966.59;5091226;28;20193;-70
2021/12/11 06:04:40;;;;;;;7.85;7.15;;;;;;;4.81;74.65;93971.25;5074621;28;20216;-70
2021/12/11 06:07:10;;;;;;;7.50;6.80;;;;;;;4.78;74.61;93971.94;5075331;28;20212;-70
2021/12/11 06:09:39;;;;;;;6.53;6.03;;;;;;;4.77;74.61;93972.28;5075078;28;20512;-70
2021/12/11 06:12:11;;;;;;;6.70;6.20;;;;;;;4.73;74.47;93979.59;5075573;28;20197;-69
2021/12/11 06:14:39;;;;;;;7.53;6.63;;;;;;;4.71;75.18;93968.19;5091508;28;20200;-71
2021/12/11 06:17:07;;;;;;;7.25;6.65;;;;;;;4.70;74.93;93964.66;5075009;28;20572;-70
2021/12/11 06:19:35;;;;;;;7.28;6.68;;;;;;;4.71;74.68;93976.38;5074978;28;20191;-71
2021/12/11 06:22:02;;;;;;;7.93;7.22;;;;;;;4.70;75.02;93975.59;5074290;28;20193;-66
2021/12/11 06:24:29;;;;;;;7.88;7.18;;;;;;;4.71;75.30;93987.31;5073873;28;20213;-69
2021/12/11 06:26:58;;;;;;;7.20;6.60;;;;;;;4.70;75.02;93986.53;5074393;28;20193;-70
2021/12/11 06:29:26;;;;;;;7.90;7.20;;;;;;;4.69;75.12;93987.66;5075274;28;20181;-66
2021/12/11 06:31:56;;;;;;;7.53;6.82;;;;;;;4.68;74.68;93977.84;5074404;28;20208;-71
2021/12/11 06:34:22;;;;;;;9.75;8.95;;;;;;;4.69;73.87;93978.69;5075176;28;20197;-70
2021/12/11 06:36:49;;;;;;;8.55;7.82;;;;;;;4.71;74.52;93970.94;5090921;28;20539;-70
2021/12/11 06:39:22;;;;;;;9.15;7.28;;;;;;;4.71;74.18;93982.63;5074718;28;20655;-70
2021/12/11 06:41:51;;;;;;;8.55;7.57;;;;;;;4.69;74.18;93975.94;5091475;28;20215;-70
2021/12/11 06:44:19;;;;;;;7.80;7.10;;;;;;;4.72;73.99;93980.69;5075017;28;20224;-70
2021/12/11 06:46:52;;;;;;;8.27;7.57;;;;;;;4.74;74.92;93973.78;5074963;28;20260;-71
2021/12/11 06:49:19;;;;;;;8.30;7.60;;;;;;;4.73;74.46;93979.59;5075028;28;20216;-72
2021/12/11 06:51:45;;;;;;;8.02;7.32;;;;;;;4.73;75.04;93979.59;5074969;28;20211;-72
2021/12/11 06:54:12;;;;;;;7.63;7.03;;;;;;;4.75;74.52;93969.09;5091121;28;20225;-71
2021/12/11 06:56:40;;;;;;;9.02;8.23;;;;;;;4.71;74.85;93958.06;5074136;28;20201;-71
2021/12/11 06:59:08;;;;;;;9.20;8.40;;;;;;;4.74;75.28;93960.09;5074008;28;20209;-71
2021/12/11 07:01:36;;;;;;;12.38;11.27;;;;;;;4.74;74.28;93957.38;5074487;28;20606;-70
2021/12/11 07:04:07;;;;;;;14.07;12.63;;;;;;;4.72;74.08;93954.22;5074010;28;20580;-71
2021/12/11 07:06:34;;;;;;;12.65;11.35;;;;;;;4.77;74.50;93959.44;5073955;28;20584;-71
2021/12/11 07:09:02;;;;;;;13.82;12.40;;;;;;;4.87;73.86;93969.09;5074801;28;20182;-69
2021/12/11 07:11:29;;;;;;;13.75;12.45;;;;;;;4.94;73.36;93954.84;5074397;28;20258;-71
2021/12/11 07:13:56;;;;;;;14.85;13.38;;;;;;;4.91;73.50;93950.88;5073796;28;20212;-71
2021/12/11 07:16:23;;;;;;;13.85;12.45;;;;;;;4.88;73.46;93948.84;5074751;28;20189;-71
2021/12/11 07:18:51;;;;;;;11.80;10.80;;;;;;;4.86;74.03;93948.38;5093528;28;20201;-71
2021/12/11 07:21:19;;;;;;;12.68;11.57;;;;;;;4.85;73.70;93944.06;5078510;28;20189;-71
2021/12/11 07:23:48;;;;;;;13.40;12.20;;;;;;;4.86;74.29;93939.38;5077580;28;20201;-73
2021/12/11 07:26:22;;;;;;;15.50;14.10;;;;;;;4.88;74.39;93943.38;5077474;28;20213;-73
2021/12/11 07:28:52;;;;;;;18.45;16.65;;;;;;;4.95;74.28;93940.06;5077129;28;20201;-71
2021/12/11 07:31:20;;;;;;;16.40;14.95;;;;;;;5.05;73.65;93940.38;5094287;28;20204;-71
2021/12/11 07:33:47;;;;;;;16.13;14.73;;;;;;;5.13;73.72;93932.38;5077522;28;20199;-69
2021/12/11 07:36:14;;;;;;;14.73;13.60;;;;;;;5.23;73.48;93929.19;5078632;28;20185;-71
2021/12/11 07:38:42;;;;;;;12.13;11.10;;;;;;;5.34;73.29;93937.66;5077330;28;20205;-71
2021/12/11 07:41:11;;;;;;;12.60;11.50;;;;;;;5.44;72.73;93935.22;5078309;28;20177;-71
2021/12/11 07:43:40;;;;;;;11.77;10.77;;;;;;;5.51;72.80;93934.63;5077749;28;20258;-71
2021/12/11 07:46:09;;;;;;;8.80;8.10;;;;;;;5.53;72.37;93941.34;5077877;28;20224;-71
2021/12/11 07:48:36;;;;;;;8.77;7.97;;;;;;;5.55;72.66;93932.78;5076890;28;20201;-71
2021/12/11 07:51:04;;;;;;;6.97;6.38;;;;;;;5.54;71.69;93925.75;5077215;28;20201;-71
2021/12/11 07:53:31;;;;;;;7.65;7.05;;;;;;;5.52;72.09;93931.56;5076844;28;20324;-71
2021/12/11 07:56:00;;;;;;;12.02;11.02;;;;;;;5.51;71.83;93929.97;5077019;28;20539;-71
2021/12/11 07:58:29;;;;;;;28.30;25.67;;;;;;;5.52;72.04;93925.31;5077833;28;20181;-73
2021/12/11 08:00:56;;;;;;;30.80;27.75;;;;;;;5.52;72.06;93917.88;5077748;28;20196;-70
2021/12/11 08:03:23;;;;;;;28.27;25.63;;;;;;;5.48;72.29;93913.44;5077419;28;20197;-71
2021/12/11 08:05:52;;;;;;;29.17;26.58;;;;;;;5.47;72.20;93923.59;5076863;28;20224;-67
2021/12/11 08:08:19;;;;;;;27.88;25.38;;;;;;;5.48;72.46;93925.22;5076700;28;20435;-67
2021/12/11 08:10:48;;;;;;;24.20;22.10;;;;;;;5.52;72.35;93928.03;5076338;28;20427;-71
2021/12/11 08:13:16;;;;;;;22.85;20.85;;;;;;;5.56;73.25;93920.72;5076895;28;20446;-70
2021/12/11 08:15:44;;;;;;;16.85;15.25;;;;;;;5.60;72.37;93932.56;5077421;28;20189;-68
2021/12/11 08:18:12;;;;;;;14.00;12.77;;;;;;;5.70;72.52;93937.53;5077313;28;20204;-70
2021/12/11 08:20:41;;;;;;;10.60;9.70;;;;;;;5.85;72.52;93927.75;5077013;28;20188;-70
2021/12/11 08:23:09;;;;;;;11.98;10.85;;;;;;;6.05;72.81;93936.91;5094067;28;20185;-71
2021/12/11 08:25:37;;;;;;;13.80;12.50;;;;;;;6.15;72.27;93930.91;5076409;28;20216;-71
2021/12/11 08:28:05;;;;;;;14.00;12.70;;;;;;;6.10;71.05;93927.63;5076559;28;20193;-71
2021/12/11 08:30:35;;;;;;;12.48;11.38;;;;;;;6.13;71.72;93924.97;5075167;28;20207;-70
2021/12/11 08:33:03;;;;;;;13.30;12.00;;;;;;;6.19;71.70;93920.84;5076424;28;20193;-70
2021/12/11 08:35:30;;;;;;;14.43;13.13;;;;;;;6.28;71.57;93917.91;5077304;28;20697;-70
2021/12/11 08:37:57;;;;;;;15.60;14.20;;;;;;;6.32;71.51;93918.00;5077281;28;20182;-70
2021/12/11 08:40:28;;;;;;;23.20;21.00;;;;;;;6.36;71.86;93907.94;5076933;28;20204;-70
2021/12/11 08:42:55;;;;;;;25.50;23.00;;;;;;;6.46;72.03;93912.88;5075967;28;20197;-70
2021/12/11 08:45:26;;;;;;;28.25;25.60;;;;;;;6.54;72.01;93902.91;5076052;28;20538;-70
2021/12/11 08:47:57;;;;;;;31.52;28.27;;;;;;;6.61;71.28;93911.25;5092816;28;20193;-70
2021/12/11 08:50:28;;;;;;;29.23;26.20;;;;;;;6.65;71.10;93904.75;5093254;28;20201;-70
2021/12/11 08:52:55;;;;;;;21.83;19.63;;;;;;;6.66;70.33;93913.75;5076600;28;20211;-70
2021/12/11 08:55:26;;;;;;;16.13;14.65;;;;;;;6.62;69.50;93904.66;5076231;28;20609;-70
2021/12/11 08:57:53;;;;;;;14.43;13.02;;;;;;;6.55;69.43;93899.78;5076670;28;20200;-71
2021/12/11 09:00:27;;;;;;;12.60;11.50;;;;;;;6.59;69.53;93894.41;5076495;28;20189;-71
2021/12/11 09:03:00;;;;;;;12.20;11.10;;;;;;;6.62;69.73;93901.91;5092497;28;20207;-70
2021/12/11 09:05:32;;;;;;;13.55;12.32;;;;;;;6.70;69.52;93896.22;5075740;28;20213;-71
2021/12/11 09:08:02;;;;;;;14.00;12.70;;;;;;;6.74;68.62;93894.34;5092333;28;20205;-71
2021/12/11 09:10:33;;;;;;;14.00;12.73;;;;;;;6.73;69.04;93873.59;5076472;28;20192;-71
2021/12/11 09:13:12;;;;;;;14.43;13.07;;;;;;;6.74;69.03;93883.41;5075478;28;20213;-70
2021/12/11 09:15:44;;;;;;;14.10;12.73;;;;;;;6.72;68.71;93873.97;5092305;28;20545;-70
2021/12/11 09:18:16;;;;;;;18.90;17.00;;;;;;;6.68;68.82;93862.94;5076365;28;20186;-71
2021/12/11 09:20:46;;;;;;;19.33;17.52;;;;;;;6.68;69.22;93864.84;5075217;28;20197;-71
2021/12/11 09:23:17;;;;;;;18.98;17.38;;;;;;;6.69;68.73;93852.75;5075839;28;20689;-71
2021/12/11 09:25:48;;;;;;;19.30;17.67;;;;;;;6.71;68.88;93859.44;5075730;28;20201;-71
2021/12/11 09:28:18;;;;;;;16.70;15.10;;;;;;;6.73;69.43;93853.63;5092168;28;20204;-70
2021/12/11 09:30:48;;;;;;;15.88;14.38;;;;;;;6.72;68.65;93852.84;5075204;28;20189;-70
2021/12/11 09:33:19;;;;;;;14.98;13.57;;;;;;;6.74;69.50;93845.03;5075713;28;20223;-71
2021/12/11 09:35:49;;;;;;;13.20;12.05;;;;;;;6.73;68.70;93839.94;5076179;28;20188;-70
2021/12/11 09:38:19;;;;;;;12.27;11.18;;;;;;;6.73;68.45;93848.94;5075558;28;20207;-71
2021/12/11 09:40:55;;;;;;;13.73;12.43;;;;;;;6.73;68.77;93835.22;5091619;28;20193;-70
2021/12/11 09:43:37;;;;;;;13.15;11.95;;;;;;;6.79;69.03;93843.16;5075775;28;20196;-70
2021/12/11 09:46:05;;;;;;;13.77;12.50;;;;;;;6.84;69.44;93835.47;5092014;28;20648;-70
2021/12/11 09:48:33;;;;;;;13.63;12.43;;;;;;;6.87;68.84;93840.22;5075840;28;20189;-70
2021/12/11 09:51:04;;;;;;;15.07;13.68;;;;;;;6.92;68.81;93831.72;5075883;28;20193;-70
2021/12/11 09:53:34;;;;;;;13.48;12.27;;;;;;;6.93;68.95;93841.50;5075626;28;20298;-70
2021/12/11 09:56:01;;;;;;;13.27;11.98;;;;;;;6.93;67.88;93838.00;5091576;28;20200;-70
2021/12/11 09:58:37;;;;;;;12.60;11.50;;;;;;;6.94;68.86;93825.88;5075493;28;20205;-71
2021/12/11 10:01:07;;;;;;;12.00;10.90;;;;;;;6.93;68.28;93819.59;5091427;28;20205;-70
2021/12/11 10:03:39;;;;;;;11.95;10.82;;;;;;;6.92;68.64;93815.28;5075122;28;20177;-71
2021/12/11 10:06:13;;;;;;;13.23;11.90;;;;;;;6.89;68.33;93812.44;5075452;28;20205;-71
2021/12/11 10:08:45;;;;;;;14.95;12.18;;;;;;;6.89;68.83;93815.97;5075493;28;20288;-71
2021/12/11 10:11:15;;;;;;;12.95;11.75;;;;;;;6.92;68.53;93809.78;5091336;28;20203;-70
2021/12/11 10:13:46;;;;;;;11.65;10.65;;;;;;;6.96;69.00;93802.44;5091717;28;20197;-70
2021/12/11 10:16:15;;;;;;;10.32;9.32;;;;;;;6.97;68.51;93803.22;5075337;28;20181;-70
2021/12/11 10:18:42;;;;;;;9.23;8.43;;;;;;;6.98;68.64;93811.09;5074946;28;20594;-70
2021/12/11 10:21:11;;;;;;;10.27;9.30;;;;;;;7.01;68.58;93812.34;5074397;28;20192;-70
2021/12/11 10:23:41;;;;;;;10.15;9.15;;;;;;;7.05;68.80;93810.44;5091704;28;20197;-70
2021/12/11 10:26:11;;;;;;;9.50;8.65;;;;;;;7.07;68.71;93801.84;5075073;28;20209;-71
2021/12/11 10:28:39;;;;;;;9.80;8.93;;;;;;;7.09;68.43;93803.09;5075308;28;20185;-70
2021/12/11 10:31:12;;;;;;;12.32;11.23;;;;;;;7.12;68.22;93807.06;5075426;28;20181;-70
2021/12/11 10:33:39;;;;;;;15.35;13.75;;;;;;;7.14;67.76;93797.28;5075096;28;20243;-71
2021/12/11 10:36:09;;;;;;;14.88;13.27;;;;;;;7.18;68.43;93800.13;5091158;28;20196;-71
2021/12/11 10:38:36;;;;;;;17.17;14.20;;;;;;;7.18;68.13;93787.19;5074218;28;20193;-70
2021/12/11 10:41:07;;;;;;;16.23;14.63;;;;;;;7.23;68.74;93789.66;5075369;28;20181;-70
2021/12/11 10:43:37;;;;;;;18.10;16.20;;;;;;;7.27;67.58;93780.72;5075039;28;20185;-70
2021/12/11 10:46:06;;;;;;;25.25;22.55;;;;;;;7.31;66.93;93770.59;5074588;28;20227;-70
2021/12/11 10:48:37;;;;;;;19.08;17.02;;;;;;;7.33;66.68;93771.00;5073982;28;20201;-70
2021/12/11 10:51:07;;;;;;;18.90;16.90;;;;;;;7.38;66.10;93773.47;5091107;28;20197;-71
2021/12/11 10:53:35;;;;;;;23.42;20.92;;;;;;;7.43;66.12;93775.91;5093441;28;20228;-71
2021/12/11 10:56:05;;;;;;;28.23;25.27;;;;;;;7.48;66.38;93764.66;5078652;28;20213;-70
2021/12/11 10:58:37;;;;;;;33.35;29.73;;;;;;;7.50;66.68;93762.31;5094849;28;20201;-70
2021/12/11 11:01:09;;;;;;;35.67;29.67;;;;;;;7.56;66.79;93765.56;5077664;28;20207;-70
2021/12/11 11:03:43;;;;;;;30.63;27.00;;;;;;;7.60;65.66;93752.69;5078045;28;20216;-70
2021/12/11 11:06:10;;;;;;;33.17;29.83;;;;;;;7.65;66.18;93755.13;5077852;28;20209;-70
2021/12/11 11:08:38;;;;;;;33.20;28.40;;;;;;;7.66;65.74;93754.78;5094773;28;20207;-70
2021/12/11 11:11:09;;;;;;;28.60;23.45;;;;;;;7.60;65.35;93753.47;5077741;28;20193;-71
2021/12/11 11:13:36;;;;;;;20.63;17.33;;;;;;;7.58;65.44;93741.28;5078328;28;20211;-71
2021/12/11 11:16:03;;;;;;;24.17;21.52;;;;;;;7.57;65.26;93739.69;5078507;28;20187;-71
2021/12/11 11:18:30;;;;;;;42.50;38.47;;;;;;;7.57;65.14;93735.00;5078580;28;20193;-71
2021/12/11 11:21:04;;;;;;;48.40;44.00;;;;;;;7.58;65.51;93739.31;5077691;28;20209;-71
2021/12/11 11:23:31;;;;;;;61.20;55.65;;;;;;;7.60;65.62;93742.50;5078518;28;20181;-71
2021/12/11 11:26:01;;;;;;;49.47;45.28;;;;;;;7.63;65.09;93736.28;5077359;28;20239;-70
2021/12/11 11:28:30;;;;;;;53.30;48.78;;;;;;;7.69;65.33;93721.06;5078760;28;20189;-70
2021/12/11 11:31:00;;;;;;;51.35;46.63;;;;;;;7.69;65.16;93723.81;5078345;28;20267;-71
2021/12/11 11:33:28;;;;;;;61.50;56.47;;;;;;;7.71;65.36;93724.25;5076997;28;20629;-71
2021/12/11 11:36:00;;;;;;;62.85;57.17;;;;;;;7.75;65.51;93709.81;5078420;28;20181;-70
2021/12/11 11:38:29;;;;;;;34.33;31.08;;;;;;;7.75;65.33;93704.31;5077984;28;20189;-70
2021/12/11 11:40:58;;;;;;;25.58;21.85;;;;;;;7.81;65.63;93706.38;5077893;28;20515;-71
2021/12/11 11:43:26;;;;;;;18.17;16.33;;;;;;;7.83;65.83;93690.31;5094311;28;20268;-71
2021/12/11 11:45:53;;;;;;;14.75;13.25;;;;;;;7.83;65.65;93698.56;5077908;28;20653;-70